Time;durP1;ratioP1;P1;durP2;ratioP2;P2;SDS_P1;SDS_P2;PMS_P1;PMS_P2;Temp;Humidity;BMP_temperature;BMP_pressure;BME280_temperature;BME280_humidity;BME280_pressure;Samples;Min_cycle;Max_cycle;Signal;HPM_P1;HPM_P2
2022/04/12 00:00:18;;;;;;;2.88;1.75;;;;;;;;;;5093865;28;20111;-77
2022/04/12 00:02:44;;;;;;;3.63;1.80;;;;;;;;;;5092717;28;20032;-78
2022/04/12 00:05:12;;;;;;;4.47;2.15;;;;;;;;;;5094112;28;20024;-78
2022/04/12 00:07:41;;;;;;;2.65;1.73;;;;;;;;;;5093595;28;20032;-77
2022/04/12 00:10:08;;;;;;;4.43;1.92;;;;;;;;;;5092823;28;20451;-77
2022/04/12 00:12:33;;;;;;;2.35;1.67;;;;;;;;;;5092542;28;20032;-78
2022/04/12 00:14:59;;;;;;;6.03;2.30;;;;;;;;;;5094132;28;20028;-78
2022/04/12 00:20:09;;;;;;;3.45;2.13;;;;;;;;;;5092567;28;20081;-78
2022/04/12 00:22:35;;;;;;;6.05;2.10;;;;;;;;;;5092580;28;20101;-77
2022/04/12 00:25:01;;;;;;;2.80;1.80;;;;;;;;;;5096115;28;20031;-78
2022/04/12 00:27:27;;;;;;;5.70;2.47;;;;;;;;;;5097243;28;20035;-79
2022/04/12 00:29:53;;;;;;;2.45;1.77;;;;;;;;;;5079297;28;20032;-78
2022/04/12 00:32:18;;;;;;;4.47;1.60;;;;;;;;;;5097232;28;20036;-78
2022/04/12 00:34:44;;;;;;;2.85;1.50;;;;;;;;;;5062084;28;20040;-78
2022/04/12 00:37:09;;;;;;;2.47;1.90;;;;;;;;;;5097667;28;20051;-78
2022/04/12 00:39:37;;;;;;;2.13;1.52;;;;;;;;;;5084935;28;20064;-77
2022/04/12 00:42:03;;;;;;;3.10;1.60;;;;;;;;;;5097301;28;20028;-78
2022/04/12 00:44:29;;;;;;;2.03;1.48;;;;;;;;;;5097123;28;20050;-78
2022/04/12 00:46:54;;;;;;;2.03;1.52;;;;;;;;;;5096922;28;20029;-78
2022/04/12 00:49:20;;;;;;;3.75;1.73;;;;;;;;;;5096680;28;20020;-77
2022/04/12 00:51:45;;;;;;;1.98;1.67;;;;;;;;;;5078911;28;20032;-78
2022/04/12 00:54:11;;;;;;;3.08;1.85;;;;;;;;;;5095607;28;20093;-79
2022/04/12 00:56:37;;;;;;;3.65;2.00;;;;;;;;;;5095544;28;20028;-78
2022/04/12 00:59:02;;;;;;;2.47;1.95;;;;;;;;;;5079758;28;20020;-78
2022/04/12 01:01:28;;;;;;;3.70;1.90;;;;;;;;;;5095854;28;20024;-78
2022/04/12 01:03:54;;;;;;;2.75;1.75;;;;;;;;;;5095433;28;20032;-78
2022/04/12 01:06:19;;;;;;;1.80;1.45;;;;;;;;;;5095389;28;20032;-78
2022/04/12 01:08:45;;;;;;;2.75;1.75;;;;;;;;;;5078633;28;20353;-79
2022/04/12 01:11:12;;;;;;;5.10;1.70;;;;;;;;;;5095230;28;20384;-78
2022/04/12 01:13:37;;;;;;;2.40;1.60;;;;;;;;;;5095241;28;20118;-78
2022/04/12 01:16:07;;;;;;;1.98;1.67;;;;;;;;;;5096356;28;20169;-78
2022/04/12 01:18:32;;;;;;;3.53;1.42;;;;;;;;;;5095193;28;20024;-78
2022/04/12 01:20:57;;;;;;;2.03;1.63;;;;;;;;;;5096874;28;20028;-79
2022/04/12 01:23:27;;;;;;;2.75;1.70;;;;;;;;;;5061468;28;20472;-78
2022/04/12 01:25:53;;;;;;;2.47;1.60;;;;;;;;;;5078507;28;20115;-79
2022/04/12 01:28:19;;;;;;;3.22;2.25;;;;;;;;;;5061679;28;20476;-79
2022/04/12 01:30:44;;;;;;;5.32;2.78;;;;;;;;;;5094852;28;20487;-80
2022/04/12 01:33:10;;;;;;;6.82;3.58;;;;;;;;;;5111702;28;20450;-78
2022/04/12 01:35:35;;;;;;;6.63;3.40;;;;;;;;;;5077563;28;20032;-78
2022/04/12 01:38:01;;;;;;;12.77;3.80;;;;;;;;;;5111918;28;20035;-78
2022/04/12 01:40:26;;;;;;;8.07;3.28;;;;;;;;;;5096913;28;20405;-79
2022/04/12 01:42:52;;;;;;;4.68;2.97;;;;;;;;;;5094755;28;20543;-78
2022/04/12 01:45:19;;;;;;;5.40;2.17;;;;;;;;;;5095585;28;20130;-78
2022/04/12 01:47:44;;;;;;;8.90;2.42;;;;;;;;;;5077579;28;20073;-78
2022/04/12 01:50:10;;;;;;;5.75;2.97;;;;;;;;;;5095668;28;20032;-79
2022/04/12 01:52:35;;;;;;;9.10;3.65;;;;;;;;;;5094370;28;20036;-78
2022/04/12 01:55:02;;;;;;;5.90;2.72;;;;;;;;;;5095523;28;20028;-79
2022/04/12 01:57:28;;;;;;;6.95;2.30;;;;;;;;;;5096306;28;20035;-78
2022/04/12 01:59:53;;;;;;;4.03;2.47;;;;;;;;;;5094471;28;20024;-78
2022/04/12 02:02:19;;;;;;;5.35;2.40;;;;;;;;;;5094166;28;20032;-78
2022/04/12 02:04:44;;;;;;;2.92;1.98;;;;;;;;;;5095460;28;20028;-79
2022/04/12 02:07:10;;;;;;;3.65;1.67;;;;;;;;;;5094130;28;20118;-78
2022/04/12 02:09:35;;;;;;;2.78;1.80;;;;;;;;;;5094106;28;20035;-78
2022/04/12 02:12:01;;;;;;;3.38;2.10;;;;;;;;;;5095679;28;20035;-79
2022/04/12 02:14:26;;;;;;;3.22;2.15;;;;;;;;;;5095285;28;20107;-78
2022/04/12 02:16:52;;;;;;;5.00;2.22;;;;;;;;;;5094845;28;20028;-78
2022/04/12 02:19:17;;;;;;;6.10;1.65;;;;;;;;;;5094075;28;20051;-79
2022/04/12 02:21:43;;;;;;;4.22;2.00;;;;;;;;;;5095185;28;20111;-78
2022/04/12 02:24:08;;;;;;;3.22;1.88;;;;;;;;;;5095213;28;20032;-79
2022/04/12 02:26:34;;;;;;;6.55;2.45;;;;;;;;;;5095381;28;20024;-78
2022/04/12 02:28:59;;;;;;;4.22;1.90;;;;;;;;;;5093806;28;20032;-77
2022/04/12 02:31:25;;;;;;;3.17;2.03;;;;;;;;;;5094634;28;20093;-79
2022/04/12 02:33:50;;;;;;;2.63;2.00;;;;;;;;;;5094969;28;20032;-78
2022/04/12 02:36:16;;;;;;;2.40;1.95;;;;;;;;;;5094784;28;20110;-78
2022/04/12 02:38:41;;;;;;;3.22;1.80;;;;;;;;;;5095329;28;20032;-78
2022/04/12 02:41:06;;;;;;;5.57;2.35;;;;;;;;;;5095089;28;20032;-78
2022/04/12 02:43:32;;;;;;;3.72;2.30;;;;;;;;;;5094547;28;20372;-79
2022/04/12 02:45:58;;;;;;;4.25;2.08;;;;;;;;;;5093759;28;20024;-78
2022/04/12 02:48:24;;;;;;;3.28;2.30;;;;;;;;;;5094648;28;20027;-78
2022/04/12 02:50:49;;;;;;;5.45;2.30;;;;;;;;;;5094545;28;20028;-78
2022/04/12 02:53:15;;;;;;;3.03;2.08;;;;;;;;;;5094565;28;20056;-78
2022/04/12 02:55:40;;;;;;;1.98;1.70;;;;;;;;;;5094549;28;20028;-78
2022/04/12 02:58:06;;;;;;;4.05;2.17;;;;;;;;;;5093243;28;20082;-78
2022/04/12 03:00:31;;;;;;;2.22;1.73;;;;;;;;;;5095915;28;20024;-78
2022/04/12 03:02:57;;;;;;;2.25;1.50;;;;;;;;;;5094463;28;20027;-78
2022/04/12 03:05:22;;;;;;;2.60;1.60;;;;;;;;;;5093239;28;20020;-78
2022/04/12 03:07:48;;;;;;;2.25;1.58;;;;;;;;;;5093483;28;20032;-77
2022/04/12 03:10:13;;;;;;;2.22;1.27;;;;;;;;;;5094326;28;20032;-78
2022/04/12 03:12:39;;;;;;;3.03;1.85;;;;;;;;;;5094232;28;20119;-78
2022/04/12 03:15:07;;;;;;;4.15;2.15;;;;;;;;;;5094279;28;20028;-78
2022/04/12 03:17:32;;;;;;;5.57;2.67;;;;;;;;;;5094249;28;20372;-79
2022/04/12 03:19:58;;;;;;;3.97;1.98;;;;;;;;;;5096166;28;20032;-78
2022/04/12 03:22:23;;;;;;;8.60;2.67;;;;;;;;;;5097042;28;20360;-78
2022/04/12 03:24:48;;;;;;;3.97;2.35;;;;;;;;;;5094174;28;20035;-78
2022/04/12 03:27:14;;;;;;;5.53;2.70;;;;;;;;;;5092980;28;20020;-78
2022/04/12 03:29:39;;;;;;;12.60;3.72;;;;;;;;;;5094066;28;20024;-78
2022/04/12 03:32:05;;;;;;;8.50;3.10;;;;;;;;;;5092926;28;20102;-78
2022/04/12 03:34:31;;;;;;;8.40;3.17;;;;;;;;;;5093091;28;20024;-79
2022/04/12 03:36:57;;;;;;;5.15;2.78;;;;;;;;;;5094099;28;20028;-79
2022/04/12 03:39:25;;;;;;;4.25;2.40;;;;;;;;;;5094418;28;20032;-78
2022/04/12 03:41:51;;;;;;;6.57;3.30;;;;;;;;;;5097177;28;20032;-78
2022/04/12 03:44:17;;;;;;;7.72;3.00;;;;;;;;;;5093841;28;20131;-78
2022/04/12 03:46:42;;;;;;;8.05;3.10;;;;;;;;;;5094047;28;20059;-78
2022/04/12 03:49:08;;;;;;;5.45;2.22;;;;;;;;;;5094005;28;20395;-78
2022/04/12 03:51:35;;;;;;;5.28;2.85;;;;;;;;;;5092716;28;20024;-78
2022/04/12 03:54:01;;;;;;;6.68;3.55;;;;;;;;;;5093900;28;20024;-78
2022/04/12 03:56:28;;;;;;;5.32;3.10;;;;;;;;;;5094502;28;20058;-78
2022/04/12 03:58:53;;;;;;;8.73;3.33;;;;;;;;;;5097630;28;20395;-78
2022/04/12 04:01:19;;;;;;;8.18;3.13;;;;;;;;;;5098828;28;20043;-78
2022/04/12 04:03:44;;;;;;;10.27;4.10;;;;;;;;;;5098565;28;20365;-77
2022/04/12 04:06:11;;;;;;;11.52;3.78;;;;;;;;;;5096509;28;20024;-78
2022/04/12 04:08:36;;;;;;;8.13;4.15;;;;;;;;;;5097939;28;20032;-77
2022/04/12 04:11:02;;;;;;;8.52;4.18;;;;;;;;;;5097587;28;20126;-77
2022/04/12 04:13:30;;;;;;;7.93;4.10;;;;;;;;;;5098001;28;20059;-77
2022/04/12 04:15:56;;;;;;;4.57;2.83;;;;;;;;;;5097770;28;20093;-77
2022/04/12 04:18:22;;;;;;;6.30;2.92;;;;;;;;;;5096410;28;20054;-77
2022/04/12 04:20:48;;;;;;;7.53;3.20;;;;;;;;;;5096471;28;20059;-76
2022/04/12 04:23:13;;;;;;;3.17;2.38;;;;;;;;;;5086195;28;20039;-77
2022/04/12 04:25:39;;;;;;;5.20;2.60;;;;;;;;;;5096199;28;20028;-77
2022/04/12 04:28:05;;;;;;;6.03;3.03;;;;;;;;;;5094732;28;20020;-76
2022/04/12 04:30:33;;;;;;;9.10;4.72;;;;;;;;;;5095463;28;20364;-77
2022/04/12 04:32:59;;;;;;;5.32;3.47;;;;;;;;;;5096005;28;20028;-76
2022/04/12 04:35:25;;;;;;;7.97;4.00;;;;;;;;;;5084429;28;20028;-75
2022/04/12 04:37:50;;;;;;;9.07;3.70;;;;;;;;;;5117874;27;20035;-75
2022/04/12 04:40:20;;;;;;;7.50;3.10;;;;;;;;;;5101316;28;20020;-77
2022/04/12 04:42:46;;;;;;;7.40;2.67;;;;;;;;;;5104159;28;20048;-75
2022/04/12 04:45:15;;;;;;;4.70;2.72;;;;;;;;;;5095150;28;20125;-76
2022/04/12 04:47:57;;;;;;;8.27;3.30;;;;;;;;;;5095537;28;20101;-77
2022/04/12 04:50:27;;;;;;;5.60;3.22;;;;;;;;;;5088978;28;20039;-77
2022/04/12 04:52:53;;;;;;;4.95;3.25;;;;;;;;;;5073806;28;20036;-77
2022/04/12 04:55:18;;;;;;;5.95;2.65;;;;;;;;;;5079882;28;20039;-80
2022/04/12 04:57:45;;;;;;;5.30;3.17;;;;;;;;;;5092580;28;20028;-78
2022/04/12 05:00:59;;;;;;;5.72;3.10;;;;;;;;;;5060662;28;20136;-79
2022/04/12 05:05:59;;;;;;;5.93;2.80;;;;;;;;;;5082800;22;20072;-80
2022/04/12 05:08:24;;;;;;;6.85;3.35;;;;;;;;;;5054888;28;20092;-77
2022/04/12 05:10:50;;;;;;;6.35;3.25;;;;;;;;;;5073181;28;20051;-79
2022/04/12 05:13:17;;;;;;;4.40;2.90;;;;;;;;;;5059066;28;20123;-78
2022/04/12 05:15:42;;;;;;;5.35;3.28;;;;;;;;;;5073491;28;20084;-78
2022/04/12 05:18:08;;;;;;;9.50;3.75;;;;;;;;;;5080902;28;20123;-78
2022/04/12 05:20:34;;;;;;;8.05;3.63;;;;;;;;;;5039348;28;20036;-77
2022/04/12 05:22:59;;;;;;;6.20;3.50;;;;;;;;;;5060803;28;20524;-80
2022/04/12 05:25:26;;;;;;;6.53;3.67;;;;;;;;;;5084996;28;20043;-78
2022/04/12 05:27:52;;;;;;;11.93;3.38;;;;;;;;;;5067154;28;20495;-77
2022/04/12 05:30:17;;;;;;;5.38;2.72;;;;;;;;;;5075185;28;20021;-78
2022/04/12 05:32:43;;;;;;;5.93;2.92;;;;;;;;;;5084406;28;20048;-77
2022/04/12 05:35:09;;;;;;;4.20;2.90;;;;;;;;;;5055749;28;20028;-78
2022/04/12 05:37:48;;;;;;;5.97;3.20;;;;;;;;;;5041818;28;20040;-79
2022/04/12 05:40:20;;;;;;;11.90;2.95;;;;;;;;;;5060353;28;20055;-79
2022/04/12 05:42:46;;;;;;;5.95;3.03;;;;;;;;;;5075962;28;20028;-77
2022/04/12 05:45:12;;;;;;;4.38;2.95;;;;;;;;;;5076926;28;20039;-80
2022/04/12 05:47:49;;;;;;;5.47;2.75;;;;;;;;;;5040281;28;20032;-78
2022/04/12 05:53:56;;;;;;;6.50;3.70;;;;;;;;;;5090108;22;20499;-79
2022/04/12 06:01:10;;;;;;;5.82;3.40;;;;;;;;;;4970370;28;20111;-81
2022/04/12 06:04:16;;;;;;;5.50;3.67;;;;;;;;;;4943907;28;20069;-77
2022/04/12 06:06:42;;;;;;;8.70;4.05;;;;;;;;;;4913071;29;20040;-73
2022/04/12 06:09:08;;;;;;;6.45;3.70;;;;;;;;;;4964981;28;20426;-74
2022/04/12 06:11:33;;;;;;;5.75;3.45;;;;;;;;;;5024544;28;20135;-74
2022/04/12 06:13:59;;;;;;;5.57;3.67;;;;;;;;;;5057580;28;20071;-73
2022/04/12 06:16:24;;;;;;;5.60;3.78;;;;;;;;;;5071677;28;20472;-73
2022/04/12 06:18:50;;;;;;;5.45;3.55;;;;;;;;;;5052891;28;20066;-73
2022/04/12 06:21:15;;;;;;;6.55;4.40;;;;;;;;;;5062613;28;20031;-74
2022/04/12 06:23:41;;;;;;;5.05;3.65;;;;;;;;;;5071851;28;20032;-75
2022/04/12 06:26:08;;;;;;;6.30;3.85;;;;;;;;;;5079794;28;20032;-73
2022/04/12 06:28:33;;;;;;;8.10;3.88;;;;;;;;;;5054640;28;20575;-72
2022/04/12 06:30:59;;;;;;;7.32;4.30;;;;;;;;;;5085081;28;20152;-76
2022/04/12 06:33:26;;;;;;;6.65;4.18;;;;;;;;;;5070969;28;20032;-73
2022/04/12 06:35:52;;;;;;;6.40;3.80;;;;;;;;;;5056307;28;20042;-75
2022/04/12 06:38:22;;;;;;;5.13;3.70;;;;;;;;;;5056707;28;20051;-75
2022/04/12 06:40:52;;;;;;;5.38;3.50;;;;;;;;;;5043417;28;20119;-75
2022/04/12 06:43:18;;;;;;;5.43;3.70;;;;;;;;;;5055100;28;20131;-77
2022/04/12 06:45:44;;;;;;;4.55;3.60;;;;;;;;;;5082299;28;20115;-75
2022/04/12 06:48:10;;;;;;;6.68;4.00;;;;;;;;;;5077428;28;20181;-74
2022/04/12 06:50:50;;;;;;;8.07;3.58;;;;;;;;;;5067350;28;21000;-74
2022/04/12 06:53:17;;;;;;;6.95;3.97;;;;;;;;;;5063232;28;20037;-73
2022/04/12 06:55:42;;;;;;;5.25;3.70;;;;;;;;;;5067353;28;20081;-72
2022/04/12 06:58:08;;;;;;;5.55;3.60;;;;;;;;;;5049839;28;20126;-73
2022/04/12 07:00:36;;;;;;;5.90;3.63;;;;;;;;;;5062492;28;20025;-74
2022/04/12 07:03:02;;;;;;;5.95;4.22;;;;;;;;;;5062558;28;20060;-77
2022/04/12 07:05:27;;;;;;;5.57;3.55;;;;;;;;;;5068661;28;20032;-79
2022/04/12 07:07:54;;;;;;;6.40;3.60;;;;;;;;;;5054215;28;20016;-77
2022/04/12 07:10:21;;;;;;;5.45;3.30;;;;;;;;;;5067747;28;20029;-81
2022/04/12 07:12:46;;;;;;;7.07;3.22;;;;;;;;;;5068479;28;20040;-75
2022/04/12 07:15:13;;;;;;;4.20;3.17;;;;;;;;;;5070389;28;20454;-75
2022/04/12 07:17:39;;;;;;;3.63;2.70;;;;;;;;;;5071216;28;20453;-78
2022/04/12 07:20:05;;;;;;;4.55;2.75;;;;;;;;;;5064920;28;20040;-79
2022/04/12 07:25:52;;;;;;;7.38;2.92;;;;;;;;;;5097363;22;20378;-79
2022/04/12 07:31:45;;;;;;;4.47;3.13;;;;;;;;;;5112762;22;20059;-80
2022/04/12 07:34:11;;;;;;;2.80;2.47;;;;;;;;;;5111320;28;20517;-78
2022/04/12 07:36:39;;;;;;;3.58;2.05;;;;;;;;;;5116952;27;20051;-82
2022/04/12 07:39:06;;;;;;;2.15;1.95;;;;;;;;;;5105896;28;20784;-83
2022/04/12 07:41:32;;;;;;;3.35;1.95;;;;;;;;;;5075579;28;20628;-76
2022/04/12 07:43:57;;;;;;;3.45;2.15;;;;;;;;;;5096817;28;20034;-76
2022/04/12 07:46:23;;;;;;;3.28;2.50;;;;;;;;;;5113291;27;20140;-76
2022/04/12 07:48:49;;;;;;;2.97;1.90;;;;;;;;;;5112016;27;20038;-79
2022/04/12 07:51:18;;;;;;;2.75;2.40;;;;;;;;;;5115749;27;20034;-78
2022/04/12 07:53:56;;;;;;;3.25;2.10;;;;;;;;;;5115980;28;20023;-82
2022/04/12 07:59:44;;;;;;;2.75;2.10;;;;;;;;;;5119619;22;20041;-78
2022/04/12 08:02:37;;;;;;;2.63;2.10;;;;;;;;;;5063090;28;20357;-84
2022/04/12 08:05:02;;;;;;;5.45;3.13;;;;;;;;;;5101973;23;20053;-82
2022/04/12 08:07:28;;;;;;;4.03;2.80;;;;;;;;;;5104253;28;20046;-81
2022/04/12 08:09:55;;;;;;;3.55;2.40;;;;;;;;;;5098068;22;20061;-79
2022/04/12 08:12:24;;;;;;;3.15;1.75;;;;;;;;;;5074349;28;20521;-82
2022/04/12 08:14:55;;;;;;;3.15;2.10;;;;;;;;;;5085733;28;20029;-82
2022/04/12 08:17:53;;;;;;;5.05;2.42;;;;;;;;;;5065382;28;20025;-79
2022/04/12 08:20:55;;;;;;;4.60;3.13;;;;;;;;;;5048236;28;20052;-81
2022/04/12 08:23:22;;;;;;;5.80;3.28;;;;;;;;;;5070453;28;20052;-82
2022/04/12 08:25:48;;;;;;;6.43;2.65;;;;;;;;;;5059459;28;20024;-81
2022/04/12 08:28:52;;;;;;;4.32;3.00;;;;;;;;;;5349617;22;20580;-83
2022/04/12 08:38:40;;;;;;;5.70;3.97;;;;;;;;;;5500176;22;20146;-84
2022/04/12 08:59:46;;;;;;;2.60;2.10;;;;;;;;;;5113406;22;20055;-81
2022/04/12 09:05:11;;;;;;;3.80;2.47;;;;;;;;;;5521901;22;20060;-81
2022/04/12 09:07:57;;;;;;;;;;;;;;;;;;;;;
2022/04/12 09:14:33;;;;;;;5.43;3.65;;;;;;;;;;5076070;28;20053;-82
2022/04/12 09:25:06;;;;;;;3.08;2.10;;;;;;;;;;4815021;26;20056;-78
2022/04/12 09:28:17;;;;;;;3.50;2.28;;;;;;;;;;5065241;28;20040;-80
2022/04/12 09:38:10;;;;;;;4.47;1.85;;;;;;;;;;4943205;29;20032;-82
2022/04/12 09:41:27;;;;;;;2.20;1.80;;;;;;;;;;5038917;28;20063;-84
2022/04/12 09:44:11;;;;;;;4.32;2.15;;;;;;;;;;5047355;28;20056;-85
2022/04/12 09:46:38;;;;;;;3.13;2.17;;;;;;;;;;5052311;28;20025;-84
2022/04/12 09:49:08;;;;;;;5.22;2.22;;;;;;;;;;5050190;28;20087;-83
2022/04/12 09:54:42;;;;;;;2.35;2.15;;;;;;;;;;5077705;22;20119;-80
2022/04/12 09:57:08;;;;;;;2.60;2.17;;;;;;;;;;5031757;28;20035;-83
2022/04/12 09:59:34;;;;;;;2.67;2.05;;;;;;;;;;5018694;28;20350;-82
2022/04/12 10:02:00;;;;;;;2.28;1.98;;;;;;;;;;5018587;28;20032;-82
2022/04/12 10:04:25;;;;;;;4.40;3.50;;;;;;;;;;5023543;28;20037;-80
2022/04/12 10:06:51;;;;;;;4.97;2.83;;;;;;;;;;5045228;28;20020;-83
2022/04/12 10:10:03;;;;;;;8.52;5.75;;;;;;;;;;5062245;28;20063;-81
2022/04/12 10:12:29;;;;;;;4.03;2.00;;;;;;;;;;5057032;28;20044;-84
2022/04/12 10:14:55;;;;;;;5.30;3.70;;;;;;;;;;5044276;28;20024;-80
2022/04/12 10:17:20;;;;;;;8.05;4.40;;;;;;;;;;5025974;28;20032;-83
2022/04/12 10:19:46;;;;;;;8.07;3.25;;;;;;;;;;5025703;28;20079;-84
2022/04/12 10:22:15;;;;;;;7.13;3.35;;;;;;;;;;5042130;28;20037;-81
2022/04/12 10:24:40;;;;;;;3.27;2.17;;;;;;;;;;5041217;28;20069;-83
2022/04/12 10:27:06;;;;;;;4.70;2.50;;;;;;;;;;5055137;28;20056;-83
2022/04/12 10:29:31;;;;;;;3.58;2.30;;;;;;;;;;5061992;28;20033;-84
2022/04/12 10:31:59;;;;;;;13.25;7.63;;;;;;;;;;5059923;28;20112;-85
2022/04/12 10:34:24;;;;;;;4.68;3.05;;;;;;;;;;5040271;28;20037;-86
2022/04/12 10:38:10;;;;;;;4.32;2.22;;;;;;;;;;5061961;28;20139;-85
2022/04/12 10:40:17;;;;;;;3.45;2.10;;;;;;;;;;5054705;28;20028;-84
2022/04/12 10:42:42;;;;;;;6.15;3.30;;;;;;;;;;5054113;28;20089;-83
2022/04/12 10:45:14;;;;;;;4.85;3.47;;;;;;;;;;5069375;28;20369;-85
2022/04/12 10:47:43;;;;;;;7.10;3.78;;;;;;;;;;5039817;28;20127;-85
2022/04/12 10:50:13;;;;;;;4.35;3.03;;;;;;;;;;5041078;28;20646;-85
2022/04/12 10:52:43;;;;;;;;;;;;;;;;;;5056659;28;20036;-90
2022/04/12 10:55:16;;;;;;;9.00;2.67;;;;;;;;;;5078998;28;19988;-84
2022/04/12 10:57:41;;;;;;;2.78;2.10;;;;;;;;;;5021707;28;20032;-81
2022/04/12 11:00:10;;;;;;;3.25;2.10;;;;;;;;;;5038198;28;20081;-87
2022/04/12 11:02:38;;;;;;;3.80;2.72;;;;;;;;;;5071579;28;20125;-79
2022/04/12 11:05:04;;;;;;;6.50;4.15;;;;;;;;;;5054523;28;20039;-83
2022/04/12 11:07:33;;;;;;;9.45;4.90;;;;;;;;;;5036120;28;20366;-82
2022/04/12 11:10:12;;;;;;;9.00;4.57;;;;;;;;;;5072608;28;20082;-87
2022/04/12 11:12:44;;;;;;;7.60;3.67;;;;;;;;;;5079430;28;20472;-81
2022/04/12 11:15:28;;;;;;;5.10;3.33;;;;;;;;;;5073635;28;20089;-90
2022/04/12 11:18:07;;;;;;;3.17;2.40;;;;;;;;;;5056494;28;20417;-84
2022/04/12 11:20:32;;;;;;;4.15;2.42;;;;;;;;;;5055579;28;20126;-82
2022/04/12 11:22:59;;;;;;;4.55;2.67;;;;;;;;;;5062854;28;20068;-81
2022/04/12 11:25:38;;;;;;;7.20;2.95;;;;;;;;;;5017008;28;20039;-84
2022/04/12 11:28:04;;;;;;;3.95;2.45;;;;;;;;;;5002096;28;20075;-81
2022/04/12 11:30:29;;;;;;;5.00;2.97;;;;;;;;;;5015798;28;20029;-83
2022/04/12 11:32:55;;;;;;;6.40;2.35;;;;;;;;;;5023236;28;20029;-83
2022/04/12 11:35:22;;;;;;;4.63;2.60;;;;;;;;;;5072082;28;20518;-83
2022/04/12 11:37:53;;;;;;;5.57;3.38;;;;;;;;;;5058419;28;20028;-84
2022/04/12 11:40:19;;;;;;;8.23;4.45;;;;;;;;;;5041225;28;20032;-88
2022/04/12 11:42:44;;;;;;;3.88;2.63;;;;;;;;;;5059567;28;20156;-89
2022/04/12 11:45:11;;;;;;;3.72;2.70;;;;;;;;;;5073670;28;20115;-85
2022/04/12 11:47:39;;;;;;;4.95;3.08;;;;;;;;;;5072733;28;20028;-85
2022/04/12 11:50:19;;;;;;;4.90;3.33;;;;;;;;;;5076172;28;20028;-87
2022/04/12 11:52:45;;;;;;;3.80;2.33;;;;;;;;;;5041854;28;20138;-83
2022/04/12 11:55:11;;;;;;;10.32;6.18;;;;;;;;;;5059685;28;20055;-83
2022/04/12 11:57:36;;;;;;;6.47;4.07;;;;;;;;;;5058640;28;20028;-81
2022/04/12 12:00:04;;;;;;;9.63;6.68;;;;;;;;;;5093364;28;20032;-80
2022/04/12 12:02:31;;;;;;;4.97;3.13;;;;;;;;;;5093563;28;20028;-84
2022/04/12 12:04:58;;;;;;;2.90;1.95;;;;;;;;;;5093450;28;20464;-83
2022/04/12 12:07:24;;;;;;;7.32;5.05;;;;;;;;;;5093562;28;20028;-84
2022/04/12 12:09:57;;;;;;;5.90;2.97;;;;;;;;;;5059060;28;20050;-85
2022/04/12 12:12:33;;;;;;;4.97;2.70;;;;;;;;;;5076047;28;20052;-82
2022/04/12 12:15:11;;;;;;;2.78;1.80;;;;;;;;;;5094256;28;20024;-82
2022/04/12 12:17:37;;;;;;;4.82;3.08;;;;;;;;;;5076011;28;20020;-82
2022/04/12 12:20:02;;;;;;;3.10;2.20;;;;;;;;;;5062909;28;20038;-82
2022/04/12 12:22:29;;;;;;;6.80;3.58;;;;;;;;;;5097485;28;20437;-82
2022/04/12 12:24:56;;;;;;;3.67;2.40;;;;;;;;;;5064836;28;20031;-83
2022/04/12 12:27:35;;;;;;;7.47;4.53;;;;;;;;;;5061915;28;20028;-81
2022/04/12 12:30:01;;;;;;;3.58;2.20;;;;;;;;;;5063418;28;20028;-82
2022/04/12 12:32:33;;;;;;;6.07;3.80;;;;;;;;;;5096480;28;20031;-85
2022/04/12 12:35:06;;;;;;;8.13;5.38;;;;;;;;;;5082399;28;20028;-82
2022/04/12 12:37:31;;;;;;;2.15;1.83;;;;;;;;;;5082441;28;20100;-80
2022/04/12 12:39:57;;;;;;;11.68;5.97;;;;;;;;;;5082337;28;20054;-82
2022/04/12 12:42:22;;;;;;;4.07;1.90;;;;;;;;;;5102439;28;20047;-84
2022/04/12 12:44:48;;;;;;;2.45;1.90;;;;;;;;;;5085926;28;20032;-82
2022/04/12 12:47:13;;;;;;;2.03;1.63;;;;;;;;;;5101776;28;20437;-84
2022/04/12 12:49:40;;;;;;;3.97;2.17;;;;;;;;;;5095476;28;20028;-85
2022/04/12 12:52:07;;;;;;;8.80;5.50;;;;;;;;;;5094828;28;20456;-82
2022/04/12 12:54:33;;;;;;;13.05;6.95;;;;;;;;;;5095950;28;20600;-88
2022/04/12 12:56:58;;;;;;;11.35;4.20;;;;;;;;;;5079595;28;20039;-85
2022/04/12 12:59:31;;;;;;;3.85;1.90;;;;;;;;;;5081185;28;20461;-86
2022/04/12 13:01:57;;;;;;;4.57;2.72;;;;;;;;;;5063283;28;20031;-81
2022/04/12 13:04:23;;;;;;;2.92;1.70;;;;;;;;;;5079215;28;20465;-86
2022/04/12 13:07:08;;;;;;;3.20;1.63;;;;;;;;;;5078893;28;20063;-84
2022/04/12 13:09:44;;;;;;;3.67;2.45;;;;;;;;;;5060992;28;20024;-85
2022/04/12 13:12:10;;;;;;;9.10;4.03;;;;;;;;;;5061321;28;20350;-84
2022/04/12 13:14:36;;;;;;;3.03;2.15;;;;;;;;;;5061852;28;20097;-83
2022/04/12 13:17:03;;;;;;;5.28;2.90;;;;;;;;;;5061743;28;20036;-85
2022/04/12 13:19:29;;;;;;;3.17;2.15;;;;;;;;;;5078636;28;20055;-84
2022/04/12 13:21:55;;;;;;;6.22;3.30;;;;;;;;;;5078140;28;20028;-86
2022/04/12 13:24:22;;;;;;;9.32;6.55;;;;;;;;;;5078070;28;20081;-84
2022/04/12 13:26:48;;;;;;;5.50;3.40;;;;;;;;;;5078352;28;20024;-82
2022/04/12 13:29:14;;;;;;;2.78;2.00;;;;;;;;;;5101688;22;20056;-82
2022/04/12 13:31:39;;;;;;;4.75;2.90;;;;;;;;;;5061055;28;20028;-83
2022/04/12 13:34:06;;;;;;;3.25;2.30;;;;;;;;;;5061342;28;20035;-84
2022/04/12 13:36:31;;;;;;;4.07;1.63;;;;;;;;;;5061554;28;20123;-83
2022/04/12 13:38:57;;;;;;;3.85;1.83;;;;;;;;;;5095754;28;20158;-84
2022/04/12 13:41:28;;;;;;;8.00;3.13;;;;;;;;;;5044716;28;20032;-84
2022/04/12 13:43:54;;;;;;;9.00;3.90;;;;;;;;;;5061370;28;20365;-84
2022/04/12 13:46:19;;;;;;;2.90;2.00;;;;;;;;;;5061915;28;20039;-85
2022/04/12 13:48:45;;;;;;;2.70;1.95;;;;;;;;;;5061297;28;20121;-83
2022/04/12 13:51:11;;;;;;;6.80;4.38;;;;;;;;;;5078023;28;20032;-88
2022/04/12 13:53:37;;;;;;;3.13;1.70;;;;;;;;;;5077531;28;20040;-82
2022/04/12 13:56:02;;;;;;;4.07;2.38;;;;;;;;;;5095900;28;20361;-83
2022/04/12 13:58:28;;;;;;;3.63;2.13;;;;;;;;;;5095593;28;20086;-84
2022/04/12 14:00:54;;;;;;;9.32;2.20;;;;;;;;;;5095601;28;20085;-86
2022/04/12 14:03:19;;;;;;;4.40;2.50;;;;;;;;;;5060906;28;20126;-84
2022/04/12 14:05:46;;;;;;;3.13;2.20;;;;;;;;;;5077296;28;20126;-85
2022/04/12 14:08:25;;;;;;;5.00;2.28;;;;;;;;;;5077215;28;20028;-87
2022/04/12 14:10:50;;;;;;;2.90;1.90;;;;;;;;;;5046091;28;20036;-84
2022/04/12 14:13:16;;;;;;;3.03;1.95;;;;;;;;;;5095176;28;20362;-83
2022/04/12 14:15:41;;;;;;;4.78;2.13;;;;;;;;;;5095264;28;20028;-82
2022/04/12 14:18:07;;;;;;;1.80;1.60;;;;;;;;;;5077331;28;20139;-85
2022/04/12 14:20:32;;;;;;;1.85;1.40;;;;;;;;;;5095210;28;20071;-85
2022/04/12 14:22:58;;;;;;;4.53;1.67;;;;;;;;;;5076794;28;20047;-83
2022/04/12 14:25:24;;;;;;;2.35;1.70;;;;;;;;;;5095321;28;20397;-78
2022/04/12 14:27:49;;;;;;;2.47;1.58;;;;;;;;;;5077168;28;20032;-77
2022/04/12 14:30:15;;;;;;;1.38;1.23;;;;;;;;;;5094772;28;20048;-78
2022/04/12 14:32:40;;;;;;;2.58;1.50;;;;;;;;;;5094452;28;20473;-78
2022/04/12 14:35:07;;;;;;;2.55;1.40;;;;;;;;;;5076883;28;20439;-78
2022/04/12 14:37:34;;;;;;;2.95;1.40;;;;;;;;;;5100467;28;20031;-77
2022/04/12 14:39:59;;;;;;;4.88;1.25;;;;;;;;;;5076540;28;20484;-77
2022/04/12 14:42:25;;;;;;;4.45;3.47;;;;;;;;;;5075994;28;20046;-78
2022/04/12 14:44:50;;;;;;;1.67;1.35;;;;;;;;;;5075930;28;20070;-78
2022/04/12 14:47:15;;;;;;;3.92;1.60;;;;;;;;;;5075461;28;20035;-80
2022/04/12 14:49:41;;;;;;;3.60;1.98;;;;;;;;;;5059217;28;20032;-79
2022/04/12 14:52:07;;;;;;;3.15;2.03;;;;;;;;;;5075207;28;20530;-77
2022/04/12 14:54:32;;;;;;;1.60;1.50;;;;;;;;;;5093728;28;20517;-78
2022/04/12 14:56:58;;;;;;;2.40;1.90;;;;;;;;;;5062430;28;20081;-78
2022/04/12 14:59:23;;;;;;;2.08;1.50;;;;;;;;;;5095081;28;20036;-78
2022/04/12 15:01:49;;;;;;;1.73;1.58;;;;;;;;;;5076433;28;20067;-78
2022/04/12 15:04:14;;;;;;;2.50;1.50;;;;;;;;;;5094372;28;20028;-77
2022/04/12 15:06:40;;;;;;;2.25;1.50;;;;;;;;;;5094472;28;20035;-78
2022/04/12 15:09:06;;;;;;;2.90;1.65;;;;;;;;;;5094299;28;20028;-78
2022/04/12 15:11:31;;;;;;;3.60;1.65;;;;;;;;;;5094324;28;20031;-79
2022/04/12 15:13:58;;;;;;;2.20;1.30;;;;;;;;;;5076543;28;20118;-78
2022/04/12 15:16:24;;;;;;;2.25;1.70;;;;;;;;;;5059931;28;20042;-78
2022/04/12 15:18:49;;;;;;;2.75;1.63;;;;;;;;;;5080768;28;20043;-77
2022/04/12 15:21:15;;;;;;;2.30;1.42;;;;;;;;;;5094635;28;20028;-77
2022/04/12 15:23:40;;;;;;;1.77;1.45;;;;;;;;;;5094404;28;20046;-77
2022/04/12 15:26:05;;;;;;;2.78;1.58;;;;;;;;;;5094241;28;20039;-77
2022/04/12 15:28:31;;;;;;;2.20;1.70;;;;;;;;;;5095091;28;20028;-80
2022/04/12 15:30:58;;;;;;;4.43;1.50;;;;;;;;;;5095447;28;20031;-78
2022/04/12 15:33:23;;;;;;;2.60;1.33;;;;;;;;;;5076759;28;20028;-78
2022/04/12 15:35:49;;;;;;;2.40;1.30;;;;;;;;;;5076949;28;20028;-78
2022/04/12 15:38:14;;;;;;;3.08;1.55;;;;;;;;;;5095517;28;20032;-76
2022/04/12 15:40:40;;;;;;;2.22;1.63;;;;;;;;;;5076966;28;20032;-76
2022/04/12 15:43:05;;;;;;;2.60;1.42;;;;;;;;;;5076167;28;20169;-77
2022/04/12 15:45:31;;;;;;;3.15;1.60;;;;;;;;;;5059251;28;20441;-78
2022/04/12 15:47:57;;;;;;;2.90;1.42;;;;;;;;;;5095464;28;20024;-80
2022/04/12 15:50:22;;;;;;;4.00;1.77;;;;;;;;;;5060770;28;20085;-80
2022/04/12 15:52:48;;;;;;;2.42;1.35;;;;;;;;;;5061249;28;20036;-83
2022/04/12 15:55:17;;;;;;;3.17;1.70;;;;;;;;;;5081558;28;20101;-80
2022/04/12 15:57:44;;;;;;;3.85;1.50;;;;;;;;;;5080660;28;20026;-81
2022/04/12 16:00:10;;;;;;;4.38;1.52;;;;;;;;;;5067702;28;20028;-81
2022/04/12 16:02:36;;;;;;;3.75;1.40;;;;;;;;;;5065231;28;20106;-79